Pagina principale
METAR-TAF:

METAR-TAF

Aeroporti :

Aeroporto di Tolone-Hyères

Tolone, Francia

latitudine: 43-06N, longitudine: 006-09E, altezza: 3 m

Osservazione

Il bollettino è stato emesso 11 minuti fa, alle 16:00 UTC
Vento 6 kt da sud-ovest
Temperature 19°C
Umidità 68%
Pressione 1020 hPa
Visibilità 10 km o più
nessuna nube inferiore a 1500 m e nessun cumulonembo

METAR: LFTH 231600Z AUTO 22006KT CAVOK 19/13 Q1020 NOSIG

Ora: 18:11 (16:11 UTC)

Previsione

Il bollettino è stato emesso 2 ore e 11 minuti fa, alle 14:00 UTC
Previsione valida dal 23 alle 15 UTC al 24 alle 15 UTC
Vento 10 kt da ovest
Visibilità 10 km o più
nessuna nube inferiore a 1500 m e nessun cumulonembo
Evoluzione graduale
dal 23 alle 18 UTC al 23 alle 20 UTC
Vento 5 kt da nord-ovest

TAF: LFTH 231400Z 2315/2415 26010KT CAVOK BECMG 2318/2320 31005KT

Osservazioni e previsioni meteorologiche di più di 4000 aeroporti (messaggi METAR e TAF).

Le stazioni disponibili sono rappresentate dai dischi gialli e rossi sulla carta.

Puntare il mouse per vedere il nome della stazione.

Clicca sopra per visualizzare le osservazioni e previsioni meteorologiche.

Per cambiare la mappa : fare clic sui pulsanti verdi con una croce nera per ingrandire, il pulsante verde con un trattino per diminuire, o sulla freccia verde per le mappe adiacenti.


METAR-TAF: